Time;durP1;ratioP1;P1;durP2;ratioP2;P2;SDS_P1;SDS_P2;PMS_P1;PMS_P2;Temp;Humidity;BMP_temperature;BMP_pressure;BME280_temperature;BME280_humidity;BME280_pressure;Samples;Min_cycle;Max_cycle;Signal;HPM_P1;HPM_P2
2023/09/15 00:00:11;;;;;;;1999.90;999.90;;;11.80;99.90;;;;;;5048673;28;21041;-71
2023/09/15 00:02:39;;;;;;;1999.90;999.90;;;11.70;99.90;;;;;;5049232;28;20523;-72
2023/09/15 00:05:08;;;;;;;1999.90;999.90;;;11.80;99.90;;;;;;5048880;28;20433;-74
2023/09/15 00:07:35;;;;;;;1999.90;999.90;;;11.70;99.90;;;;;;5048041;28;20490;-74
2023/09/15 00:10:03;;;;;;;1999.90;999.90;;;11.60;99.90;;;;;;5047170;28;20816;-74
2023/09/15 00:12:30;;;;;;;1999.90;999.90;;;11.50;99.90;;;;;;5047109;28;20919;-74
2023/09/15 00:14:57;;;;;;;1999.90;999.90;;;11.20;99.90;;;;;;5049376;28;20437;-75
2023/09/15 00:17:25;;;;;;;1999.90;999.90;;;11.10;99.90;;;;;;5049121;28;20439;-75
2023/09/15 00:19:53;;;;;;;1999.90;999.90;;;10.90;99.90;;;;;;5049110;28;20425;-75
2023/09/15 00:22:19;;;;;;;1999.90;999.90;;;10.90;99.90;;;;;;5044545;28;20433;-75
2023/09/15 00:24:46;;;;;;;1999.90;999.90;;;10.90;99.90;;;;;;5042592;28;20443;-74
2023/09/15 00:27:13;;;;;;;1999.90;999.90;;;11.00;99.90;;;;;;5047021;28;20433;-73
2023/09/15 00:29:40;;;;;;;1999.90;999.90;;;10.90;99.90;;;;;;5049603;28;20440;-74
2023/09/15 00:32:07;;;;;;;1999.90;999.90;;;11.00;99.90;;;;;;5049005;28;20506;-74
2023/09/15 00:34:34;;;;;;;1999.90;999.90;;;11.00;99.90;;;;;;5048261;28;20433;-76
2023/09/15 00:37:02;;;;;;;1999.90;999.90;;;11.30;99.90;;;;;;5047328;28;20433;-74
2023/09/15 00:39:28;;;;;;;1999.90;999.90;;;11.40;99.90;;;;;;5047910;28;20429;-73
2023/09/15 00:41:55;;;;;;;1999.90;999.90;;;11.50;99.90;;;;;;5047731;28;20429;-74
2023/09/15 00:44:23;;;;;;;1999.90;999.90;;;11.60;99.90;;;;;;5047806;28;20460;-74
2023/09/15 00:46:49;;;;;;;1999.90;999.90;;;11.70;99.90;;;;;;5047543;28;20440;-73
2023/09/15 00:49:16;;;;;;;1999.90;999.90;;;11.70;99.90;;;;;;5045990;28;20429;-74
2023/09/15 00:51:43;;;;;;;1999.90;999.90;;;11.70;99.90;;;;;;5041070;28;20429;-74
2023/09/15 00:54:12;;;;;;;1999.90;999.90;;;11.60;99.90;;;;;;5047028;28;20437;-73
2023/09/15 00:56:39;;;;;;;1999.90;999.90;;;11.30;99.90;;;;;;5047433;28;20440;-74
2023/09/15 00:59:06;;;;;;;1999.90;999.90;;;11.10;99.90;;;;;;5046197;28;20424;-75
2023/09/15 01:01:34;;;;;;;1999.90;999.90;;;10.90;99.90;;;;;;5047369;28;20433;-75
2023/09/15 01:04:01;;;;;;;1999.90;999.90;;;11.00;99.90;;;;;;5046299;28;20919;-74
2023/09/15 01:06:28;;;;;;;1999.90;999.90;;;11.10;99.90;;;;;;5046562;28;20429;-73
2023/09/15 01:08:56;;;;;;;1999.90;999.90;;;11.10;99.90;;;;;;5047458;28;20425;-74
2023/09/15 01:11:26;;;;;;;1999.90;999.90;;;11.10;99.90;;;;;;5045560;28;20487;-73
2023/09/15 01:13:53;;;;;;;1999.90;999.90;;;11.10;99.90;;;;;;5047813;28;20437;-74
2023/09/15 01:16:30;;;;;;;1999.90;999.90;;;11.40;99.90;;;;;;5047554;28;20417;-75
2023/09/15 01:19:12;;;;;;;1999.90;999.90;;;11.10;99.90;;;;;;5040645;28;20453;-75
2023/09/15 01:22:07;;;;;;;1999.90;999.90;;;11.10;99.90;;;;;;5046986;28;20441;-72
2023/09/15 01:24:59;;;;;;;1999.90;999.90;;;10.90;99.90;;;;;;4980068;28;1749808;-74
2023/09/15 01:28:04;;;;;;;1999.90;999.90;;;10.90;99.90;;;;;;5047611;28;20807;-75
2023/09/15 01:30:33;;;;;;;1999.90;999.90;;;10.90;99.90;;;;;;5047325;28;20962;-74
2023/09/15 01:33:02;;;;;;;1999.90;999.90;;;11.00;99.90;;;;;;5041356;28;20429;-74
2023/09/15 01:35:29;;;;;;;1999.90;999.90;;;11.00;99.90;;;;;;5047932;28;20924;-75
2023/09/15 01:37:56;;;;;;;1999.90;999.90;;;11.00;99.90;;;;;;5048288;28;20436;-74
2023/09/15 01:40:23;;;;;;;1999.90;999.90;;;11.10;99.90;;;;;;5046972;28;20494;-74
2023/09/15 01:42:51;;;;;;;1999.90;999.90;;;11.10;99.90;;;;;;5047579;28;20429;-74
2023/09/15 01:45:18;;;;;;;1999.90;999.90;;;11.40;99.90;;;;;;5047699;28;20441;-77
2023/09/15 01:47:47;;;;;;;1999.90;999.90;;;11.10;99.90;;;;;;5048322;28;20433;-74
2023/09/15 01:50:15;;;;;;;1999.90;999.90;;;11.50;99.90;;;;;;5049028;28;20456;-76
2023/09/15 01:52:43;;;;;;;1999.90;999.90;;;11.10;99.90;;;;;;5051520;28;20432;-75
2023/09/15 01:55:11;;;;;;;1999.90;999.90;;;11.00;99.90;;;;;;5050534;28;20444;-73
2023/09/15 01:57:38;;;;;;;1999.90;999.90;;;11.10;99.90;;;;;;5051796;28;20437;-74
2023/09/15 02:00:07;;;;;;;1999.90;999.90;;;11.10;99.90;;;;;;5050941;28;20433;-74
2023/09/15 02:02:34;;;;;;;1999.90;999.90;;;11.10;99.90;;;;;;5051239;28;20437;-74
2023/09/15 02:05:02;;;;;;;1999.90;999.90;;;11.00;99.90;;;;;;5051123;28;20437;-74
2023/09/15 02:07:29;;;;;;;1999.90;999.90;;;11.00;99.90;;;;;;5051913;28;20849;-75
2023/09/15 02:09:56;;;;;;;1999.90;999.90;;;11.00;99.90;;;;;;5049729;28;20942;-73
2023/09/15 02:12:22;;;;;;;1999.90;999.90;;;11.10;99.90;;;;;;5051002;28;20440;-74
2023/09/15 02:14:49;;;;;;;1999.90;999.90;;;11.10;99.90;;;;;;5051411;28;20433;-74
2023/09/15 02:17:16;;;;;;;1999.90;999.90;;;11.10;99.90;;;;;;5051402;28;20429;-74
2023/09/15 02:19:43;;;;;;;1999.90;999.90;;;11.10;99.90;;;;;;5050569;28;20433;-74
2023/09/15 02:22:11;;;;;;;1999.90;999.90;;;11.10;99.90;;;;;;5050993;28;20490;-74
2023/09/15 02:24:38;;;;;;;1999.90;999.90;;;11.00;99.90;;;;;;5049430;28;20474;-72
2023/09/15 02:27:05;;;;;;;1999.90;999.90;;;11.10;99.90;;;;;;5050542;28;20468;-75
2023/09/15 02:29:32;;;;;;;1999.90;999.90;;;11.00;99.90;;;;;;5050376;28;20440;-73
2023/09/15 02:31:59;;;;;;;1999.90;999.90;;;11.10;99.90;;;;;;5050798;28;20428;-70
2023/09/15 02:34:25;;;;;;;1999.90;999.90;;;11.10;99.90;;;;;;5050914;28;20456;-75
2023/09/15 02:36:52;;;;;;;1999.90;999.90;;;11.10;99.90;;;;;;5051191;28;20437;-74
2023/09/15 02:39:20;;;;;;;1999.90;999.90;;;11.10;99.90;;;;;;5049580;28;20436;-74
2023/09/15 02:41:47;;;;;;;1999.90;999.90;;;11.20;99.90;;;;;;5049975;28;20518;-75
2023/09/15 02:44:14;;;;;;;1999.90;999.90;;;11.30;99.90;;;;;;5050086;28;20950;-74
2023/09/15 02:46:41;;;;;;;1999.90;999.90;;;11.20;99.90;;;;;;5050033;28;20433;-71
2023/09/15 02:49:08;;;;;;;1999.90;999.90;;;11.20;99.90;;;;;;5050254;28;20444;-74
2023/09/15 02:51:37;;;;;;;1999.90;999.90;;;11.30;99.90;;;;;;5050236;28;20935;-75
2023/09/15 02:54:03;;;;;;;1999.90;999.90;;;11.30;99.90;;;;;;5048687;28;21473;-74
2023/09/15 02:56:31;;;;;;;1999.90;999.90;;;11.40;99.90;;;;;;5046936;28;20915;-73
2023/09/15 02:58:58;;;;;;;1999.90;999.90;;;11.40;99.90;;;;;;5050072;28;20434;-73
2023/09/15 03:01:25;;;;;;;1999.90;999.90;;;11.50;99.90;;;;;;5045911;28;20429;-72
2023/09/15 03:03:52;;;;;;;1999.90;999.90;;;11.30;99.90;;;;;;5050877;28;20433;-72
2023/09/15 03:06:18;;;;;;;1999.90;999.90;;;11.40;99.90;;;;;;5048441;28;20931;-75
2023/09/15 03:08:45;;;;;;;1999.90;999.90;;;11.40;99.90;;;;;;5045561;28;20431;-72
2023/09/15 03:11:13;;;;;;;1999.90;999.90;;;11.60;99.90;;;;;;5046096;28;20436;-74
2023/09/15 03:13:41;;;;;;;1999.90;999.90;;;11.40;99.90;;;;;;5049399;28;20987;-75
2023/09/15 03:16:09;;;;;;;1999.90;999.90;;;11.40;99.90;;;;;;5050251;28;20433;-74
2023/09/15 03:18:36;;;;;;;1999.90;999.90;;;11.40;99.90;;;;;;5049614;28;20554;-74
2023/09/15 03:21:04;;;;;;;1999.90;999.90;;;11.40;99.90;;;;;;5049366;28;21370;-73
2023/09/15 03:23:30;;;;;;;1999.90;999.90;;;11.40;99.90;;;;;;5043757;28;20432;-74
2023/09/15 03:26:01;;;;;;;1999.90;999.90;;;11.40;99.90;;;;;;5046648;28;20429;-75
2023/09/15 03:28:28;;;;;;;1999.90;999.90;;;11.50;99.90;;;;;;5048455;28;20941;-73
2023/09/15 03:30:56;;;;;;;1999.90;999.90;;;11.50;99.90;;;;;;5049701;28;20432;-73
2023/09/15 03:33:24;;;;;;;1999.90;999.90;;;11.80;99.90;;;;;;5049549;28;20436;-74
2023/09/15 03:35:51;;;;;;;1999.90;999.90;;;12.00;99.90;;;;;;5042311;28;20431;-74
2023/09/15 03:38:18;;;;;;;1999.90;999.90;;;11.60;99.90;;;;;;5040665;28;20431;-78
2023/09/15 03:40:44;;;;;;;1999.90;999.90;;;11.50;99.90;;;;;;5049933;28;20434;-74
2023/09/15 03:43:11;;;;;;;1999.90;999.90;;;11.50;99.90;;;;;;5049234;28;20444;-73
2023/09/15 03:45:38;;;;;;;1999.90;999.90;;;11.50;99.90;;;;;;5049639;28;21051;-74
2023/09/15 03:48:06;;;;;;;1999.90;999.90;;;11.50;99.90;;;;;;5049561;28;20444;-74
2023/09/15 03:50:33;;;;;;;1999.90;999.90;;;11.50;99.90;;;;;;5041675;28;20461;-74
2023/09/15 03:53:00;;;;;;;1999.90;999.90;;;11.60;99.90;;;;;;5039742;28;20527;-70
2023/09/15 03:55:26;;;;;;;1999.90;999.90;;;11.80;99.90;;;;;;5046866;28;20441;-73
2023/09/15 03:57:53;;;;;;;1999.90;999.90;;;11.60;99.90;;;;;;5047244;28;20433;-73
2023/09/15 04:00:21;;;;;;;1999.90;999.90;;;11.70;99.90;;;;;;5048584;28;20807;-74
2023/09/15 04:02:48;;;;;;;1999.90;999.90;;;11.70;99.90;;;;;;5047889;28;20483;-72
2023/09/15 04:05:16;;;;;;;1999.90;999.90;;;11.60;99.90;;;;;;5048940;28;21122;-73
2023/09/15 04:07:43;;;;;;;1999.90;999.90;;;11.50;99.90;;;;;;5048273;28;20434;-73
2023/09/15 04:10:10;;;;;;;1999.90;999.90;;;11.50;99.90;;;;;;5041866;28;20441;-74
2023/09/15 04:12:37;;;;;;;1999.90;999.90;;;11.40;99.90;;;;;;5047759;28;20433;-73
2023/09/15 04:15:05;;;;;;;1999.90;999.90;;;11.40;99.90;;;;;;5048950;28;20503;-74
2023/09/15 04:17:32;;;;;;;1999.90;999.90;;;11.50;99.90;;;;;;5048921;28;20436;-73
2023/09/15 04:19:59;;;;;;;1999.90;999.90;;;11.50;99.90;;;;;;5049397;28;20429;-73
2023/09/15 04:22:28;;;;;;;1999.90;999.90;;;11.80;99.90;;;;;;5047344;28;20437;-72
2023/09/15 04:24:55;;;;;;;1999.90;999.90;;;11.50;99.90;;;;;;5047976;28;20809;-73
2023/09/15 04:27:22;;;;;;;1999.90;999.90;;;11.40;99.90;;;;;;5048974;28;20443;-71
2023/09/15 04:29:53;;;;;;;1999.90;999.90;;;11.30;99.90;;;;;;5048762;28;20433;-75
2023/09/15 04:32:19;;;;;;;1999.90;999.90;;;11.30;99.90;;;;;;5047233;28;20448;-70
2023/09/15 04:34:47;;;;;;;1999.90;999.90;;;11.30;99.90;;;;;;5048491;28;20440;-73
2023/09/15 04:37:13;;;;;;;1999.90;999.90;;;11.20;99.90;;;;;;5044888;28;20441;-72
2023/09/15 04:39:42;;;;;;;1999.90;999.90;;;11.40;99.90;;;;;;5043331;28;20429;-73
2023/09/15 04:42:10;;;;;;;1999.90;999.90;;;11.30;99.90;;;;;;5048220;28;20984;-74
2023/09/15 04:44:37;;;;;;;1999.90;999.90;;;11.50;99.90;;;;;;5047522;28;20436;-72
2023/09/15 04:47:04;;;;;;;1999.90;999.90;;;11.50;99.90;;;;;;5048155;28;20429;-72
2023/09/15 04:49:30;;;;;;;1999.90;999.90;;;11.30;99.90;;;;;;5047302;28;20819;-73
2023/09/15 04:51:58;;;;;;;1999.90;999.90;;;11.10;99.90;;;;;;5047619;28;20444;-74
2023/09/15 04:54:26;;;;;;;1999.90;999.90;;;11.00;99.90;;;;;;5042234;28;20433;-74
2023/09/15 04:56:54;;;;;;;1999.90;999.90;;;10.80;99.90;;;;;;5046389;28;20425;-72
2023/09/15 04:59:21;;;;;;;1999.90;999.90;;;10.70;99.90;;;;;;5048943;28;20432;-74
2023/09/15 05:01:48;;;;;;;1999.90;999.90;;;10.70;99.90;;;;;;5048495;28;20437;-74
2023/09/15 05:04:15;;;;;;;1999.90;999.90;;;10.70;99.90;;;;;;5047316;28;20886;-73
2023/09/15 05:06:42;;;;;;;1999.90;999.90;;;10.60;99.90;;;;;;5048789;28;20421;-74
2023/09/15 05:09:10;;;;;;;1999.90;999.90;;;10.60;99.90;;;;;;5044896;28;20852;-72
2023/09/15 05:11:37;;;;;;;1999.90;999.90;;;10.70;99.90;;;;;;5047415;28;20433;-72
2023/09/15 05:14:05;;;;;;;1999.90;999.90;;;10.80;99.90;;;;;;5048441;28;20511;-74
2023/09/15 05:16:33;;;;;;;1999.90;999.90;;;10.90;99.90;;;;;;5048868;28;20433;-74
2023/09/15 05:19:00;;;;;;;1999.90;999.90;;;11.00;99.90;;;;;;5041385;28;20430;-74
2023/09/15 05:21:27;;;;;;;1999.90;999.90;;;11.10;99.90;;;;;;5040900;28;20439;-74
2023/09/15 05:23:53;;;;;;;1999.90;999.90;;;11.10;99.90;;;;;;5045075;28;20437;-75
2023/09/15 05:26:20;;;;;;;1999.90;999.90;;;11.10;99.90;;;;;;5051730;28;20433;-74
2023/09/15 05:28:47;;;;;;;1999.90;999.90;;;11.10;99.90;;;;;;5050240;28;20811;-74
2023/09/15 05:31:15;;;;;;;1999.90;999.90;;;11.20;99.90;;;;;;5052552;28;20451;-74
2023/09/15 05:33:41;;;;;;;1999.90;999.90;;;11.50;99.90;;;;;;5047875;28;20440;-74
2023/09/15 05:36:08;;;;;;;1999.90;999.90;;;11.60;99.90;;;;;;5052947;28;20469;-75
2023/09/15 05:38:35;;;;;;;1999.90;999.90;;;11.70;99.90;;;;;;5045969;28;20434;-74
2023/09/15 05:41:03;;;;;;;1999.90;999.90;;;11.90;99.90;;;;;;5052200;28;20425;-74
2023/09/15 05:43:30;;;;;;;1999.90;999.90;;;12.00;99.90;;;;;;5051142;28;20435;-73
2023/09/15 05:45:57;;;;;;;1999.90;999.90;;;12.20;99.90;;;;;;5052315;28;21268;-71
2023/09/15 05:48:26;;;;;;;1999.90;999.90;;;12.40;99.90;;;;;;5048081;28;20494;-73
2023/09/15 05:50:53;;;;;;;1999.90;999.90;;;12.50;99.90;;;;;;5050201;28;20509;-73
2023/09/15 05:53:20;;;;;;;1999.90;999.90;;;12.70;99.90;;;;;;5046331;28;20460;-74
2023/09/15 05:55:47;;;;;;;1999.90;999.90;;;12.80;99.90;;;;;;5049280;28;20437;-73
2023/09/15 05:58:14;;;;;;;1999.90;999.90;;;12.90;99.90;;;;;;5051137;28;20429;-74
2023/09/15 06:00:42;;;;;;;1999.90;999.90;;;13.10;99.90;;;;;;5050548;28;20539;-74
2023/09/15 06:03:09;;;;;;;1999.90;999.90;;;13.20;99.90;;;;;;5045648;28;20425;-74
2023/09/15 06:05:37;;;;;;;1999.90;999.90;;;13.30;99.90;;;;;;5047179;28;20822;-74
2023/09/15 06:08:06;;;;;;;1999.90;999.90;;;13.50;99.90;;;;;;5043205;28;20431;-74
2023/09/15 06:10:33;;;;;;;1999.90;999.90;;;13.60;99.90;;;;;;5045431;28;20435;-71
2023/09/15 06:13:00;;;;;;;1999.90;999.90;;;13.70;99.90;;;;;;5050599;28;20433;-70
2023/09/15 06:15:26;;;;;;;1999.90;999.90;;;13.90;99.90;;;;;;5047753;28;20441;-70
2023/09/15 06:17:53;;;;;;;1999.90;999.90;;;14.10;99.90;;;;;;5046954;28;20520;-71
2023/09/15 06:20:20;;;;;;;1999.90;999.90;;;14.20;99.90;;;;;;5042148;28;20429;-69
2023/09/15 06:22:48;;;;;;;1999.90;999.90;;;14.30;99.90;;;;;;5045360;28;20429;-72
2023/09/15 06:25:15;;;;;;;1999.90;999.90;;;14.30;99.90;;;;;;5051124;28;20831;-72
2023/09/15 06:27:42;;;;;;;1999.90;999.90;;;14.30;99.90;;;;;;5049160;28;20429;-71
2023/09/15 06:30:09;;;;;;;1999.90;999.90;;;14.30;99.90;;;;;;5050308;28;20480;-70
2023/09/15 06:32:36;;;;;;;1999.90;999.90;;;14.40;99.90;;;;;;5048701;28;20429;-71
2023/09/15 06:35:04;;;;;;;1999.90;999.90;;;14.50;99.90;;;;;;5050750;28;20437;-71
2023/09/15 06:37:31;;;;;;;1999.90;999.90;;;14.50;99.90;;;;;;5048183;28;20429;-71
2023/09/15 06:39:59;;;;;;;1999.90;999.90;;;14.50;99.90;;;;;;5048442;28;20433;-70
2023/09/15 06:42:26;;;;;;;1999.90;999.90;;;14.70;99.90;;;;;;5045632;28;20433;-71
2023/09/15 06:44:53;;;;;;;1999.90;999.90;;;14.80;99.90;;;;;;5047397;28;20803;-71
2023/09/15 06:47:19;;;;;;;1999.90;999.90;;;14.90;99.90;;;;;;5042859;28;20438;-71
2023/09/15 06:49:46;;;;;;;1999.90;999.90;;;14.90;99.90;;;;;;5044149;28;20433;-72
2023/09/15 06:52:13;;;;;;;1999.90;999.90;;;14.90;99.90;;;;;;5047963;28;20452;-71
2023/09/15 06:54:40;;;;;;;1999.90;999.90;;;14.80;99.90;;;;;;5051742;28;20500;-70
2023/09/15 06:57:08;;;;;;;1999.90;999.90;;;14.90;99.90;;;;;;5050612;28;20473;-71
2023/09/15 06:59:35;;;;;;;1999.90;999.90;;;14.80;99.90;;;;;;5050183;28;20429;-72
2023/09/15 07:02:02;;;;;;;1999.90;999.90;;;14.90;99.90;;;;;;5049368;28;20433;-71
2023/09/15 07:04:29;;;;;;;1999.90;999.90;;;15.10;99.90;;;;;;5043040;28;20804;-71
2023/09/15 07:06:56;;;;;;;1999.90;999.90;;;15.30;99.90;;;;;;5048945;28;20445;-72
2023/09/15 07:09:24;;;;;;;1999.90;999.90;;;15.50;99.90;;;;;;5044615;28;21038;-70
2023/09/15 07:11:51;;;;;;;1999.90;999.90;;;15.60;99.90;;;;;;5047652;28;20444;-72
2023/09/15 07:14:19;;;;;;;1999.90;999.90;;;15.80;99.90;;;;;;5044474;28;20439;-72
2023/09/15 07:16:46;;;;;;;1999.90;999.90;;;15.80;99.90;;;;;;5043892;28;20973;-71
2023/09/15 07:19:13;;;;;;;1999.90;999.90;;;15.90;99.90;;;;;;5046655;28;20524;-71
2023/09/15 07:21:41;;;;;;;1999.90;999.90;;;16.00;99.90;;;;;;5042849;28;20429;-73
2023/09/15 07:24:09;;;;;;;1999.90;999.90;;;16.20;99.90;;;;;;5046521;28;20469;-71
2023/09/15 07:26:35;;;;;;;1999.90;999.90;;;16.20;99.90;;;;;;5049872;28;20437;-72
2023/09/15 07:29:03;;;;;;;1999.90;999.90;;;16.30;99.90;;;;;;5045297;28;20429;-71
2023/09/15 07:31:36;;;;;;;1999.90;999.90;;;16.60;99.90;;;;;;5047512;28;20459;-71
2023/09/15 07:34:03;;;;;;;1999.90;999.90;;;16.80;99.90;;;;;;5045444;28;20429;-71
2023/09/15 07:36:30;;;;;;;1999.90;999.90;;;17.20;99.90;;;;;;5045589;28;20431;-69
2023/09/15 07:38:57;;;;;;;1999.90;999.90;;;17.20;99.90;;;;;;5043276;28;20526;-71
2023/09/15 07:41:24;;;;;;;1999.90;999.90;;;17.20;99.90;;;;;;5042383;28;20433;-70
2023/09/15 07:43:53;;;;;;;1999.90;999.90;;;17.50;99.90;;;;;;5043198;28;20448;-71
2023/09/15 07:46:20;;;;;;;1999.90;999.90;;;17.60;99.90;;;;;;5037673;28;20447;-70
2023/09/15 07:48:48;;;;;;;1999.90;999.90;;;17.70;99.90;;;;;;5043289;28;20923;-71
2023/09/15 07:51:15;;;;;;;1999.90;999.90;;;17.80;99.90;;;;;;5044486;28;20448;-71
2023/09/15 07:53:42;;;;;;;1999.90;999.90;;;17.90;99.90;;;;;;5043532;28;20520;-72
2023/09/15 07:56:09;;;;;;;1999.90;999.90;;;17.70;99.90;;;;;;5043419;28;20445;-72
2023/09/15 07:58:36;;;;;;;1999.90;999.90;;;17.80;99.90;;;;;;5048203;28;20436;-72
2023/09/15 08:01:03;;;;;;;1999.90;999.90;;;17.80;99.90;;;;;;5047772;28;20436;-72
2023/09/15 08:03:30;;;;;;;1999.90;999.90;;;18.20;99.90;;;;;;5048411;28;20799;-72
2023/09/15 08:05:58;;;;;;;1999.90;999.90;;;18.40;99.90;;;;;;5049297;28;20436;-71
2023/09/15 08:08:25;;;;;;;1999.90;999.90;;;18.30;99.90;;;;;;5045929;28;20437;-71
2023/09/15 08:10:52;;;;;;;1999.90;999.90;;;18.30;99.90;;;;;;5039833;28;20433;-70
2023/09/15 08:13:18;;;;;;;1999.90;999.90;;;18.20;99.90;;;;;;5041758;28;20433;-72
2023/09/15 08:15:45;;;;;;;1999.90;999.90;;;18.40;99.90;;;;;;5039582;28;20436;-72
2023/09/15 08:18:12;;;;;;;1999.90;999.90;;;18.30;99.90;;;;;;5043124;28;20438;-71
2023/09/15 08:20:39;;;;;;;1999.90;999.90;;;18.70;99.90;;;;;;5048739;28;21675;-71
2023/09/15 08:23:07;;;;;;;1999.90;999.90;;;18.90;99.90;;;;;;5049119;28;20433;-72
2023/09/15 08:25:33;;;;;;;1999.90;999.90;;;18.90;99.90;;;;;;5049570;28;20437;-72
2023/09/15 08:28:02;;;;;;;1999.90;999.90;;;19.10;99.90;;;;;;5049496;28;20439;-71
2023/09/15 08:30:30;;;;;;;1999.90;999.90;;;19.30;99.90;;;;;;5047507;28;20425;-70
2023/09/15 08:32:57;;;;;;;1999.90;999.90;;;19.30;99.90;;;;;;5047610;28;20479;-70
2023/09/15 08:35:23;;;;;;;1999.90;999.90;;;19.30;99.90;;;;;;5048567;28;20440;-71
2023/09/15 08:37:50;;;;;;;1999.90;999.90;;;19.60;99.90;;;;;;5049106;28;20437;-71
2023/09/15 08:40:19;;;;;;;1999.90;999.90;;;19.40;99.90;;;;;;5042333;28;20489;-72
2023/09/15 08:42:46;;;;;;;1999.90;999.90;;;19.60;99.90;;;;;;5047710;28;20425;-72
2023/09/15 08:45:14;;;;;;;1999.90;999.90;;;19.90;99.90;;;;;;5043326;28;20955;-70
2023/09/15 08:47:46;;;;;;;1999.90;999.90;;;19.80;99.90;;;;;;5042317;28;20429;-72
2023/09/15 08:50:14;;;;;;;1999.90;999.90;;;19.80;99.90;;;;;;5049005;28;20445;-72
2023/09/15 08:52:42;;;;;;;1999.90;999.90;;;19.70;99.90;;;;;;5048807;28;20811;-72
2023/09/15 08:55:10;;;;;;;1999.90;999.90;;;19.80;99.90;;;;;;5049147;28;20437;-71
2023/09/15 08:57:40;;;;;;;1999.90;999.90;;;20.00;99.90;;;;;;5048154;28;21061;-72
2023/09/15 09:00:08;;;;;;;1999.90;999.90;;;20.20;99.90;;;;;;5043398;28;20490;-72
2023/09/15 09:02:35;;;;;;;1999.90;999.90;;;20.10;99.90;;;;;;5045471;28;20521;-71
2023/09/15 09:05:02;;;;;;;1999.90;999.90;;;20.40;99.90;;;;;;5043407;28;20440;-70
2023/09/15 09:07:30;;;;;;;1999.90;999.90;;;20.40;99.90;;;;;;5046538;28;20436;-71
2023/09/15 09:09:58;;;;;;;1999.90;999.90;;;20.60;99.90;;;;;;5042176;28;20801;-70
2023/09/15 09:12:24;;;;;;;1999.90;999.90;;;20.80;99.90;;;;;;5041898;28;20443;-72
2023/09/15 09:14:56;;;;;;;1999.90;999.90;;;21.00;99.90;;;;;;5045276;28;20436;-72
2023/09/15 09:17:23;;;;;;;1999.90;999.90;;;20.90;99.90;;;;;;5041711;28;20458;-73
2023/09/15 09:19:50;;;;;;;1999.90;999.90;;;21.10;99.90;;;;;;5045052;28;20945;-72
2023/09/15 09:22:17;;;;;;;1999.90;999.90;;;21.00;99.90;;;;;;5047948;28;20440;-72
2023/09/15 09:24:45;;;;;;;1999.90;999.90;;;21.30;99.90;;;;;;5043525;28;20456;-71
2023/09/15 09:27:13;;;;;;;1999.90;999.90;;;21.10;99.90;;;;;;5044609;28;20433;-71
2023/09/15 09:29:41;;;;;;;1999.90;999.90;;;21.00;99.90;;;;;;5047046;28;20425;-72
2023/09/15 09:32:13;;;;;;;1999.90;999.90;;;21.20;99.90;;;;;;5049320;28;20429;-71
2023/09/15 09:34:40;;;;;;;1999.90;999.90;;;21.30;99.90;;;;;;5049421;28;20903;-69
2023/09/15 09:37:07;;;;;;;1999.90;999.90;;;21.30;99.90;;;;;;5049724;28;21187;-72
2023/09/15 09:39:35;;;;;;;1999.90;999.90;;;21.20;99.90;;;;;;5049515;28;21012;-72
2023/09/15 09:42:02;;;;;;;1999.90;999.90;;;21.20;99.90;;;;;;5048362;28;20954;-71
2023/09/15 09:44:30;;;;;;;1999.90;999.90;;;21.30;99.90;;;;;;5049513;28;20427;-72
2023/09/15 09:46:58;;;;;;;1999.90;999.90;;;21.40;99.90;;;;;;5049705;28;20467;-71
2023/09/15 09:49:26;;;;;;;1999.90;999.90;;;21.70;99.90;;;;;;5049468;28;20419;-72
2023/09/15 09:51:53;;;;;;;1999.90;999.90;;;21.60;99.90;;;;;;5049061;28;20436;-72
2023/09/15 09:54:19;;;;;;;1999.90;999.90;;;21.80;99.90;;;;;;5048654;28;20426;-70
2023/09/15 09:56:50;;;;;;;1999.90;999.90;;;21.80;99.90;;;;;;5049339;28;20416;-71
2023/09/15 09:59:17;;;;;;;1999.90;999.90;;;21.80;99.90;;;;;;5049536;28;20440;-67
2023/09/15 10:01:44;;;;;;;1999.90;999.90;;;21.90;99.90;;;;;;5049187;28;20409;-70
2023/09/15 10:04:10;;;;;;;1999.90;999.90;;;21.90;99.90;;;;;;5049525;28;20417;-70
2023/09/15 10:06:39;;;;;;;1999.90;999.90;;;21.80;99.90;;;;;;5049309;28;20978;-70
2023/09/15 10:09:07;;;;;;;1999.90;999.90;;;21.70;99.90;;;;;;5048752;28;20437;-70
2023/09/15 10:11:35;;;;;;;1999.90;999.90;;;21.70;99.90;;;;;;5051547;28;20429;-69
2023/09/15 10:14:03;;;;;;;1999.90;999.90;;;21.80;99.90;;;;;;5052986;28;20479;-70
2023/09/15 10:16:31;;;;;;;1999.90;999.90;;;21.80;99.90;;;;;;5052830;28;20899;-70
2023/09/15 10:19:00;;;;;;;1999.90;999.90;;;22.00;99.90;;;;;;5052767;28;20414;-68
2023/09/15 10:21:28;;;;;;;1999.90;999.90;;;21.80;99.90;;;;;;5052833;28;20417;-70
2023/09/15 10:24:02;;;;;;;1999.90;999.90;;;22.00;99.90;;;;;;5051752;28;20996;-71
2023/09/15 10:26:29;;;;;;;1999.90;999.90;;;22.20;99.90;;;;;;5050504;28;20421;-69
2023/09/15 10:28:57;;;;;;;1999.90;999.90;;;21.90;99.90;;;;;;5052731;28;20421;-70
2023/09/15 10:31:24;;;;;;;1999.90;999.90;;;21.90;99.90;;;;;;5052249;28;20437;-71
2023/09/15 10:33:51;;;;;;;1999.90;999.90;;;21.80;99.90;;;;;;5052182;28;20479;-73
2023/09/15 10:36:20;;;;;;;1999.90;999.90;;;21.80;99.90;;;;;;5052817;28;20427;-72
2023/09/15 10:38:47;;;;;;;1999.90;999.90;;;21.80;99.90;;;;;;5046135;28;20429;-73
2023/09/15 10:41:26;;;;;;;1999.90;999.90;;;21.70;99.90;;;;;;5045660;28;20432;-72
2023/09/15 10:43:54;;;;;;;1999.90;999.90;;;21.70;99.90;;;;;;5049555;28;20437;-73
2023/09/15 10:46:21;;;;;;;1999.90;999.90;;;21.70;99.90;;;;;;5051032;28;20441;-70
2023/09/15 10:48:51;;;;;;;1999.90;999.90;;;21.70;99.90;;;;;;5050253;28;20433;-72
2023/09/15 10:51:19;;;;;;;1999.90;999.90;;;21.90;99.90;;;;;;5049712;28;20432;-72
2023/09/15 10:53:47;;;;;;;1999.90;999.90;;;22.00;99.90;;;;;;5045464;28;20482;-72
2023/09/15 10:56:16;;;;;;;1999.90;999.90;;;22.00;99.90;;;;;;5048630;28;20807;-69
2023/09/15 10:58:46;;;;;;;1999.90;999.90;;;22.10;99.90;;;;;;5050460;28;20523;-70
2023/09/15 11:01:14;;;;;;;1999.90;999.90;;;22.00;99.90;;;;;;5049491;28;20452;-72
2023/09/15 11:03:43;;;;;;;1999.90;999.90;;;21.90;99.90;;;;;;5050011;28;20426;-72
2023/09/15 11:06:12;;;;;;;1999.90;999.90;;;22.00;99.90;;;;;;5049171;28;20433;-72
2023/09/15 11:08:39;;;;;;;1999.90;999.90;;;22.20;99.90;;;;;;5046034;28;20435;-73
2023/09/15 11:11:09;;;;;;;1999.90;999.90;;;22.40;99.90;;;;;;5050271;28;20518;-72
2023/09/15 11:13:37;;;;;;;1999.90;999.90;;;22.10;99.90;;;;;;5050100;28;20429;-72
2023/09/15 11:16:05;;;;;;;1999.90;999.90;;;22.20;99.90;;;;;;5050282;28;20945;-69
2023/09/15 11:18:33;;;;;;;1999.90;999.90;;;22.20;99.90;;;;;;5048621;28;20945;-71
2023/09/15 11:21:01;;;;;;;1999.90;999.90;;;22.10;99.90;;;;;;5047798;28;20433;-70
2023/09/15 11:23:28;;;;;;;1999.90;999.90;;;22.20;99.90;;;;;;5046157;28;20480;-70
2023/09/15 11:26:01;;;;;;;1999.90;999.90;;;22.40;99.90;;;;;;5049160;28;21400;-71
2023/09/15 11:28:29;;;;;;;1999.90;999.90;;;22.70;99.90;;;;;;5049510;28;20479;-70
2023/09/15 11:30:55;;;;;;;1999.90;999.90;;;22.60;99.90;;;;;;5049018;28;20429;-71
2023/09/15 11:33:24;;;;;;;1999.90;999.90;;;22.60;99.90;;;;;;5048029;28;20425;-69
2023/09/15 11:35:51;;;;;;;1999.90;999.90;;;22.40;99.90;;;;;;5046611;28;20429;-70
2023/09/15 11:38:19;;;;;;;1999.90;999.90;;;22.30;99.90;;;;;;5048017;28;20483;-70
2023/09/15 11:40:47;;;;;;;1999.90;999.90;;;22.30;99.90;;;;;;5042734;28;20486;-68
2023/09/15 11:43:14;;;;;;;1999.90;999.90;;;22.30;99.90;;;;;;5049098;28;20437;-67
2023/09/15 11:45:42;;;;;;;1999.90;999.90;;;22.30;99.90;;;;;;5049367;28;20433;-68
2023/09/15 11:48:09;;;;;;;1999.90;999.90;;;22.50;99.90;;;;;;5049600;28;20440;-71
2023/09/15 11:50:37;;;;;;;1999.90;999.90;;;22.50;99.90;;;;;;5047660;28;20429;-69
2023/09/15 11:53:04;;;;;;;1999.90;999.90;;;22.40;99.90;;;;;;5048320;28;20433;-72
2023/09/15 11:55:31;;;;;;;1999.90;999.90;;;22.50;99.90;;;;;;5048060;28;20433;-70
2023/09/15 11:57:58;;;;;;;1999.90;999.90;;;22.40;99.90;;;;;;5048315;28;20429;-70
2023/09/15 12:00:28;;;;;;;1999.90;999.90;;;22.40;99.90;;;;;;5049371;28;20437;-71